LatviaFixed distance
Cesis Eco Trail
4 Aug2018
Distance
78km
Finishers
8670 men16 women
Winning time
6:27:35h
Median pace
7.71km/h
Pace distribution
86 finishers · 5.83–12.07 km/h · mean 7.97
Every finisher ran the same 78 km course, so these paces are directly comparable.
Histogram of finisher pace. 86 finishers ranged from 5.83 to 12.07 kilometres per hour, with a mean of 7.97 and a median of 7.71. The busiest band is 7.0 to 7.5 kilometres per hour, with 15 finishers.
Results
Ranks 51–86 of 86
| Rank | Runner | Time | Pace | Cat. | Placing |
|---|---|---|---|---|---|
| 51 | Accenture Latvia | 10:26:56h | 7.46 | M23 | 44th M · 21st M23 |
| 52 | VSK Noskrien | 10:37:25h | 7.34 | M23 | 45th M · 22nd M23 |
| 53 | 10:38:28h | 7.33 | M35 | 46th M · 12th M35 | |
| 54 | VSK Noskrien | 10:39:29h | 7.32 | W23 | 8th F · 6th W23 |
| 55 | VSK Noskrien | 10:42:49h | 7.28 | W23 | 9th F · 7th W23 |
| 56 | 10:43:21h | 7.27 | M35 | 47th M · 13th M35 | |
| 57 | :) | 10:44:31h | 7.26 | M40 | 48th M · 7th M40 |
| 58 | VSK Noskrien | 10:47:33h | 7.23 | M23 | 49th M · 23rd M23 |
| 59 | 10:52:58h | 7.17 | M35 | 50th M · 14th M35 | |
| 60 | 10:55:21h | 7.14 | W23 | 10th F · 8th W23 | |
| 61 | Jāņkalni | 10:57:13h | 7.12 | MU23 | 51st M · 1st MU23 |
| 62 | Belimo | 11:00:27h | 7.09 | M55 | 52nd M · 1st M55 |
| 63 | 11:00:43h | 7.08 | M23 | 53rd M · 24th M23 | |
| 64 | VSK Noskrien | 11:04:29h | 7.04 | M50 | 54th M · 1st M50 |
| 65 | Bemorealive | 11:09:47h | 6.99 | — | 55th M |
| 66 | 11:13:45h | 6.95 | M45 | 56th M · 5th M45 | |
| 67 | 11:17:01h | 6.91 | M23 | 57th M · 25th M23 | |
| 68 | LSC | 11:30:48h | 6.78 | M65 | 58th M · 1st M65 |
| 69 | Vecais Kazlēns 354 | 11:40:34h | 6.68 | W23 | 11th F · 9th W23 |
| 70 | 11:40:51h | 6.68 | — | 59th M | |
| 71 | www.Endo.LV | 11:46:34h | 6.62 | M35 | 60th M · 15th M35 |
| 72 | 11:47:30h | 6.62 | M55 | 61st M · 2nd M55 | |
| 73 | 11:49:23h | 6.60 | M23 | 62nd M · 26th M23 | |
| 74 | Alusala | 11:57:35h | 6.52 | M50 | 63rd M · 2nd M50 |
| 75 | 11:58:14h | 6.52 | W35 | 12th F · 1st W35 | |
| 76 | Butwhocaresanyway | 11:58:24h | 6.51 | W23 | 13th F · 10th W23 |
| 77 | VSK Noskrien / Salacgr... | 12:12:29h | 6.39 | W23 | 14th F · 11th W23 |
| 78 | VSK Noskrien/Noskrien ... | 12:12:50h | 6.39 | W45 | 15th F · 1st W45 |
| 79 | VSK Noskrien | 12:14:48h | 6.37 | M55 | 64th M · 3rd M55 |
| 80 | Kinetics | 12:14:49h | 6.37 | M40 | 65th M · 8th M40 |
| 81 | S/K Ozolnieki | 12:17:09h | 6.35 | M60 | 66th M · 1st M60 |
| 82 | Zemessardzes 22. Kājni... | 12:26:37h | 6.27 | M35 | 67th M · 16th M35 |
| 83 | Trail Running Factory | 12:37:26h | 6.18 | W45 | 16th F · 2nd W45 |
| 84 | 13:14:19h | 5.89 | M23 | 68th M · 27th M23 | |
| 85 | Noskrien Cēsis | 13:14:36h | 5.89 | M55 | 69th M · 4th M55 |
| 86 | VSK Noskrien | 13:22:19h | 5.83 | M40 | 70th M · 9th M40 |
- 51Accenture Latvia44th M · 21st M23Time10:26:56hPace7.46Cat.M23
- 52VSK Noskrien45th M · 22nd M23Time10:37:25hPace7.34Cat.M23
- 5346th M · 12th M35Time10:38:28hPace7.33Cat.M35
- 54VSK Noskrien8th F · 6th W23Time10:39:29hPace7.32Cat.W23
- 55VSK Noskrien9th F · 7th W23Time10:42:49hPace7.28Cat.W23
- 5647th M · 13th M35Time10:43:21hPace7.27Cat.M35
- 57:)48th M · 7th M40Time10:44:31hPace7.26Cat.M40
- 58VSK Noskrien49th M · 23rd M23Time10:47:33hPace7.23Cat.M23
- 5950th M · 14th M35Time10:52:58hPace7.17Cat.M35
- 6010th F · 8th W23Time10:55:21hPace7.14Cat.W23
- 61Jāņkalni51st M · 1st MU23Time10:57:13hPace7.12Cat.MU23
- 62Belimo52nd M · 1st M55Time11:00:27hPace7.09Cat.M55
- 6353rd M · 24th M23Time11:00:43hPace7.08Cat.M23
- 64VSK Noskrien54th M · 1st M50Time11:04:29hPace7.04Cat.M50
- 65Bemorealive55th MTime11:09:47hPace6.99
- 6656th M · 5th M45Time11:13:45hPace6.95Cat.M45
- 6757th M · 25th M23Time11:17:01hPace6.91Cat.M23
- 68LSC58th M · 1st M65Time11:30:48hPace6.78Cat.M65
- 69Vecais Kazlēns 35411th F · 9th W23Time11:40:34hPace6.68Cat.W23
- 7059th MTime11:40:51hPace6.68
- 71www.Endo.LV60th M · 15th M35Time11:46:34hPace6.62Cat.M35
- 7261st M · 2nd M55Time11:47:30hPace6.62Cat.M55
- 7362nd M · 26th M23Time11:49:23hPace6.60Cat.M23
- 74Alusala63rd M · 2nd M50Time11:57:35hPace6.52Cat.M50
- 7512th F · 1st W35Time11:58:14hPace6.52Cat.W35
- 76Butwhocaresanyway13th F · 10th W23Time11:58:24hPace6.51Cat.W23
- 77VSK Noskrien / Salacgr...14th F · 11th W23Time12:12:29hPace6.39Cat.W23
- 78VSK Noskrien/Noskrien ...15th F · 1st W45Time12:12:50hPace6.39Cat.W45
- 79VSK Noskrien64th M · 3rd M55Time12:14:48hPace6.37Cat.M55
- 80Kinetics65th M · 8th M40Time12:14:49hPace6.37Cat.M40
- 81S/K Ozolnieki66th M · 1st M60Time12:17:09hPace6.35Cat.M60
- 82Zemessardzes 22. Kājni...67th M · 16th M35Time12:26:37hPace6.27Cat.M35
- 83Trail Running Factory16th F · 2nd W45Time12:37:26hPace6.18Cat.W45
- 8468th M · 27th M23Time13:14:19hPace5.89Cat.M23
- 85Noskrien Cēsis69th M · 4th M55Time13:14:36hPace5.89Cat.M55
- 86VSK Noskrien70th M · 9th M40Time13:22:19hPace5.83Cat.M40
Showing ranks 51–86 of 86